sensor_id;sensor_type;location;lat;lon;timestamp;pressure;altitude;pressure_sealevel;temperature;humidity
57094;BME280;42970;50.996;3.706;2023-04-22T00:00:23;74676.06;;;-146.65;83.11
57094;BME280;42970;50.996;3.706;2023-04-22T00:02:48;74676.06;;;-146.65;82.88
57094;BME280;42970;50.996;3.706;2023-04-22T00:05:14;74682.09;;;-146.65;83.41
57094;BME280;42970;50.996;3.706;2023-04-22T00:07:39;74655.88;;;-146.65;82.92
57094;BME280;42970;50.996;3.706;2023-04-22T00:10:07;74647.81;;;-146.65;82.99
57094;BME280;42970;50.996;3.706;2023-04-22T00:12:33;74661.94;;;-146.65;82.87
57094;BME280;42970;50.996;3.706;2023-04-22T00:14:58;74645.81;;;-146.65;82.72
57094;BME280;42970;50.996;3.706;2023-04-22T00:17:24;74645.81;;;-146.65;82.29
57094;BME280;42970;50.996;3.706;2023-04-22T00:19:49;74637.75;;;-146.65;82.04
57094;BME280;42970;50.996;3.706;2023-04-22T00:22:14;74653.88;;;-146.65;82.10
57094;BME280;42970;50.996;3.706;2023-04-22T00:24:40;74641.78;;;-146.65;82.87
57094;BME280;42970;50.996;3.706;2023-04-22T00:27:05;74633.72;;;-146.65;82.19
57094;BME280;42970;50.996;3.706;2023-04-22T00:29:30;74623.63;;;-146.65;82.42
57094;BME280;42970;50.996;3.706;2023-04-22T00:31:56;74635.72;;;-146.65;82.70
57094;BME280;42970;50.996;3.706;2023-04-22T00:34:21;74631.69;;;-146.65;82.65
57094;BME280;42970;50.996;3.706;2023-04-22T00:36:46;74645.81;;;-146.65;82.62
57094;BME280;42970;50.996;3.706;2023-04-22T00:39:12;74661.94;;;-146.65;82.85
57094;BME280;42970;50.996;3.706;2023-04-22T00:41:38;74647.81;;;-146.65;83.88
57094;BME280;42970;50.996;3.706;2023-04-22T00:44:04;74619.59;;;-146.65;82.69
57094;BME280;42970;50.996;3.706;2023-04-22T00:46:29;74567.16;;;-146.65;83.28
57094;BME280;42970;50.996;3.706;2023-04-22T00:48:54;74601.44;;;-146.65;83.41
57094;BME280;42970;50.996;3.706;2023-04-22T00:51:20;74603.47;;;-146.65;83.20
57094;BME280;42970;50.996;3.706;2023-04-22T00:53:45;74579.25;;;-146.65;83.57
57094;BME280;42970;50.996;3.706;2023-04-22T00:56:11;74569.19;;;-146.65;83.64
57094;BME280;42970;50.996;3.706;2023-04-22T00:58:37;74538.94;;;-146.65;83.30
57094;BME280;42970;50.996;3.706;2023-04-22T01:01:02;74553.03;;;-146.65;83.37
57094;BME280;42970;50.996;3.706;2023-04-22T01:03:28;74544.97;;;-146.65;83.35
57094;BME280;42970;50.996;3.706;2023-04-22T01:05:54;74559.09;;;-146.65;83.51
57094;BME280;42970;50.996;3.706;2023-04-22T01:08:20;74549.00;;;-146.65;83.82
57094;BME280;42970;50.996;3.706;2023-04-22T01:10:45;74540.94;;;-146.65;83.49
57094;BME280;42970;50.996;3.706;2023-04-22T01:13:11;74551.03;;;-146.65;83.68
57094;BME280;42970;50.996;3.706;2023-04-22T01:15:36;74547.00;;;-146.65;84.23
57094;BME280;42970;50.996;3.706;2023-04-22T01:18:02;74573.22;;;-146.65;84.07
57094;BME280;42970;50.996;3.706;2023-04-22T01:20:27;74553.03;;;-146.65;84.43
57094;BME280;42970;50.996;3.706;2023-04-22T01:22:56;74599.44;;;-146.65;85.51
57094;BME280;42970;50.996;3.706;2023-04-22T01:25:25;74553.03;;;-146.65;84.38
57094;BME280;42970;50.996;3.706;2023-04-22T01:27:51;74565.16;;;-146.65;84.32
57094;BME280;42970;50.996;3.706;2023-04-22T01:30:17;74633.72;;;-146.65;86.16
57094;BME280;42970;50.996;3.706;2023-04-22T01:32:42;74607.50;;;-146.65;86.13
57094;BME280;42970;50.996;3.706;2023-04-22T01:35:08;74631.69;;;-146.65;87.38
57094;BME280;42970;50.996;3.706;2023-04-22T01:37:34;74613.53;;;-146.65;86.35
57094;BME280;42970;50.996;3.706;2023-04-22T01:39:59;74593.38;;;-146.65;85.81
57094;BME280;42970;50.996;3.706;2023-04-22T01:42:25;74609.50;;;-146.65;86.54
57094;BME280;42970;50.996;3.706;2023-04-22T01:44:50;74571.19;;;-146.65;85.11
57094;BME280;42970;50.996;3.706;2023-04-22T01:47:16;74571.19;;;-146.65;84.61
57094;BME280;42970;50.996;3.706;2023-04-22T01:49:41;74605.47;;;-146.65;84.76
57094;BME280;42970;50.996;3.706;2023-04-22T01:52:06;74557.06;;;-146.65;84.40
57094;BME280;42970;50.996;3.706;2023-04-22T01:54:32;74601.44;;;-146.65;84.70
57094;BME280;42970;50.996;3.706;2023-04-22T01:56:57;74581.28;;;-146.65;84.09
57094;BME280;42970;50.996;3.706;2023-04-22T01:59:23;74569.19;;;-146.65;84.57
57094;BME280;42970;50.996;3.706;2023-04-22T02:01:48;74613.53;;;-146.65;85.82
57094;BME280;42970;50.996;3.706;2023-04-22T02:04:14;74587.31;;;-146.65;84.64
57094;BME280;42970;50.996;3.706;2023-04-22T02:06:39;74553.03;;;-146.65;83.96
57094;BME280;42970;50.996;3.706;2023-04-22T02:09:04;74561.13;;;-146.65;83.63
57094;BME280;42970;50.996;3.706;2023-04-22T02:11:30;74528.84;;;-146.65;83.22
57094;BME280;42970;50.996;3.706;2023-04-22T02:13:55;74522.78;;;-146.65;82.77
57094;BME280;42970;50.996;3.706;2023-04-22T02:16:20;74524.81;;;-146.65;82.84
57094;BME280;42970;50.996;3.706;2023-04-22T02:18:46;74557.06;;;-146.65;83.18
57094;BME280;42970;50.996;3.706;2023-04-22T02:21:11;74583.28;;;-146.65;83.70
57094;BME280;42970;50.996;3.706;2023-04-22T02:23:36;74559.09;;;-146.65;83.52
57094;BME280;42970;50.996;3.706;2023-04-22T02:26:02;74563.13;;;-146.65;83.54
57094;BME280;42970;50.996;3.706;2023-04-22T02:28:27;74593.38;;;-146.65;84.50
57094;BME280;42970;50.996;3.706;2023-04-22T02:30:53;74567.16;;;-146.65;83.71
57094;BME280;42970;50.996;3.706;2023-04-22T02:33:18;74557.06;;;-146.65;83.98
57094;BME280;42970;50.996;3.706;2023-04-22T02:35:43;74567.16;;;-146.65;83.74
57094;BME280;42970;50.996;3.706;2023-04-22T02:38:09;74561.13;;;-146.65;83.41
57094;BME280;42970;50.996;3.706;2023-04-22T02:40:34;74551.03;;;-146.65;83.01
57094;BME280;42970;50.996;3.706;2023-04-22T02:43:00;74506.66;;;-146.65;82.86
57094;BME280;42970;50.996;3.706;2023-04-22T02:45:25;74524.81;;;-146.65;82.41
57094;BME280;42970;50.996;3.706;2023-04-22T02:47:50;74524.81;;;-146.65;82.12
57094;BME280;42970;50.996;3.706;2023-04-22T02:50:16;74571.19;;;-146.65;83.69
57094;BME280;42970;50.996;3.706;2023-04-22T02:52:41;74536.91;;;-146.65;82.62
57094;BME280;42970;50.996;3.706;2023-04-22T02:55:07;74528.84;;;-146.65;82.39
57094;BME280;42970;50.996;3.706;2023-04-22T02:57:32;74530.88;;;-146.65;82.70
57094;BME280;42970;50.996;3.706;2023-04-22T02:59:57;74532.88;;;-146.65;82.11
57094;BME280;42970;50.996;3.706;2023-04-22T03:02:23;74553.03;;;-146.65;83.16
57094;BME280;42970;50.996;3.706;2023-04-22T03:04:48;74536.91;;;-146.65;82.49
57094;BME280;42970;50.996;3.706;2023-04-22T03:07:13;74544.97;;;-146.65;82.51
57094;BME280;42970;50.996;3.706;2023-04-22T03:09:38;74530.88;;;-146.65;82.43
57094;BME280;42970;50.996;3.706;2023-04-22T03:12:04;74514.72;;;-146.65;82.04
57094;BME280;42970;50.996;3.706;2023-04-22T03:14:30;74524.81;;;-146.65;82.71
57094;BME280;42970;50.996;3.706;2023-04-22T03:16:55;74508.69;;;-146.65;82.64
57094;BME280;42970;50.996;3.706;2023-04-22T03:19:20;74494.56;;;-146.65;81.60
57094;BME280;42970;50.996;3.706;2023-04-22T03:21:46;74500.63;;;-146.65;81.77
57094;BME280;42970;50.996;3.706;2023-04-22T03:24:11;74488.50;;;-146.65;81.50
57094;BME280;42970;50.996;3.706;2023-04-22T03:26:37;74520.78;;;-146.65;82.37
57094;BME280;42970;50.996;3.706;2023-04-22T03:29:03;74496.59;;;-146.65;82.26
57094;BME280;42970;50.996;3.706;2023-04-22T03:31:28;74508.69;;;-146.65;82.19
57094;BME280;42970;50.996;3.706;2023-04-22T03:33:53;74482.47;;;-146.65;82.06
57094;BME280;42970;50.996;3.706;2023-04-22T03:36:19;74500.63;;;-146.65;82.06
57094;BME280;42970;50.996;3.706;2023-04-22T03:38:45;74498.59;;;-146.65;81.79
57094;BME280;42970;50.996;3.706;2023-04-22T03:41:10;74484.47;;;-146.65;82.09
57094;BME280;42970;50.996;3.706;2023-04-22T03:43:36;74504.66;;;-146.65;82.46
57094;BME280;42970;50.996;3.706;2023-04-22T03:46:01;74506.66;;;-146.65;81.96
57094;BME280;42970;50.996;3.706;2023-04-22T03:48:26;74502.63;;;-146.65;82.65
57094;BME280;42970;50.996;3.706;2023-04-22T03:50:54;74490.53;;;-146.65;82.57
57094;BME280;42970;50.996;3.706;2023-04-22T03:53:19;74512.72;;;-146.65;83.10
57094;BME280;42970;50.996;3.706;2023-04-22T03:55:45;74520.78;;;-146.65;83.79
57094;BME280;42970;50.996;3.706;2023-04-22T03:58:10;74510.69;;;-146.65;83.55
57094;BME280;42970;50.996;3.706;2023-04-22T04:00:36;74504.66;;;-146.65;83.25
57094;BME280;42970;50.996;3.706;2023-04-22T04:03:01;74472.38;;;-146.65;82.80
57094;BME280;42970;50.996;3.706;2023-04-22T04:05:27;74454.22;;;-146.65;82.44
57094;BME280;42970;50.996;3.706;2023-04-22T04:07:52;74456.25;;;-146.65;82.36
57094;BME280;42970;50.996;3.706;2023-04-22T04:10:18;74472.38;;;-146.65;81.83
57094;BME280;42970;50.996;3.706;2023-04-22T04:12:43;74498.59;;;-146.65;82.53
57094;BME280;42970;50.996;3.706;2023-04-22T04:15:09;74480.44;;;-146.65;82.48
57094;BME280;42970;50.996;3.706;2023-04-22T04:17:35;74502.63;;;-146.65;82.52
57094;BME280;42970;50.996;3.706;2023-04-22T04:20:01;74504.66;;;-146.65;82.55
57094;BME280;42970;50.996;3.706;2023-04-22T04:22:26;74532.88;;;-146.65;83.17
57094;BME280;42970;50.996;3.706;2023-04-22T04:24:53;74498.59;;;-146.65;82.75
57094;BME280;42970;50.996;3.706;2023-04-22T04:27:20;74496.59;;;-146.65;82.90
57094;BME280;42970;50.996;3.706;2023-04-22T04:29:47;74474.41;;;-146.65;82.63
57094;BME280;42970;50.996;3.706;2023-04-22T04:32:13;74470.38;;;-146.65;82.82
57094;BME280;42970;50.996;3.706;2023-04-22T04:34:38;74508.69;;;-146.65;83.47
57094;BME280;42970;50.996;3.706;2023-04-22T04:37:04;74492.56;;;-146.65;83.50
57094;BME280;42970;50.996;3.706;2023-04-22T04:39:29;74488.50;;;-146.65;83.54
57094;BME280;42970;50.996;3.706;2023-04-22T04:41:55;74446.16;;;-146.65;82.54
57094;BME280;42970;50.996;3.706;2023-04-22T04:44:22;74448.19;;;-146.65;82.47
57094;BME280;42970;50.996;3.706;2023-04-22T04:46:48;74462.31;;;-146.65;82.84
57094;BME280;42970;50.996;3.706;2023-04-22T04:49:15;74460.28;;;-146.65;83.15
57094;BME280;42970;50.996;3.706;2023-04-22T04:51:40;74456.25;;;-146.65;82.81
57094;BME280;42970;50.996;3.706;2023-04-22T04:54:06;74448.19;;;-146.65;82.42
57094;BME280;42970;50.996;3.706;2023-04-22T04:56:31;74444.16;;;-146.65;82.16
57094;BME280;42970;50.996;3.706;2023-04-22T04:58:57;74446.16;;;-146.65;82.01
57094;BME280;42970;50.996;3.706;2023-04-22T05:01:22;74488.50;;;-146.65;82.29
57094;BME280;42970;50.996;3.706;2023-04-22T05:03:47;74536.91;;;-146.65;84.40
57094;BME280;42970;50.996;3.706;2023-04-22T05:06:13;74514.72;;;-146.65;85.31
57094;BME280;42970;50.996;3.706;2023-04-22T05:08:38;74476.41;;;-146.65;84.02
57094;BME280;42970;50.996;3.706;2023-04-22T05:11:04;74482.47;;;-146.65;84.45
57094;BME280;42970;50.996;3.706;2023-04-22T05:13:29;74514.72;;;-146.65;85.10
57094;BME280;42970;50.996;3.706;2023-04-22T05:15:55;74494.56;;;-146.65;85.28
57094;BME280;42970;50.996;3.706;2023-04-22T05:18:20;74462.31;;;-146.65;84.34
57094;BME280;42970;50.996;3.706;2023-04-22T05:20:47;74468.34;;;-146.65;84.58
57094;BME280;42970;50.996;3.706;2023-04-22T05:23:13;74492.56;;;-146.65;84.84
57094;BME280;42970;50.996;3.706;2023-04-22T05:25:38;74492.56;;;-146.65;85.01
57094;BME280;42970;50.996;3.706;2023-04-22T05:28:04;74496.59;;;-146.65;84.53
57094;BME280;42970;50.996;3.706;2023-04-22T05:30:29;74492.56;;;-146.65;84.41
57094;BME280;42970;50.996;3.706;2023-04-22T05:32:54;74516.75;;;-146.65;84.81
57094;BME280;42970;50.996;3.706;2023-04-22T05:35:20;74482.47;;;-146.65;84.67
57094;BME280;42970;50.996;3.706;2023-04-22T05:37:45;74494.56;;;-146.65;84.96
57094;BME280;42970;50.996;3.706;2023-04-22T05:40:10;74470.38;;;-146.65;83.73
57094;BME280;42970;50.996;3.706;2023-04-22T05:42:36;74510.69;;;-146.65;84.58
57094;BME280;42970;50.996;3.706;2023-04-22T05:45:01;74472.38;;;-146.65;83.92
57094;BME280;42970;50.996;3.706;2023-04-22T05:47:27;74446.16;;;-146.65;83.89
57094;BME280;42970;50.996;3.706;2023-04-22T05:49:52;74442.13;;;-146.65;84.03
57094;BME280;42970;50.996;3.706;2023-04-22T05:52:17;74415.91;;;-146.65;83.43
57094;BME280;42970;50.996;3.706;2023-04-22T05:54:43;74474.41;;;-146.65;83.56
57094;BME280;42970;50.996;3.706;2023-04-22T05:57:08;74432.06;;;-146.65;83.56
57094;BME280;42970;50.996;3.706;2023-04-22T05:59:33;74421.97;;;-146.65;83.06
57094;BME280;42970;50.996;3.706;2023-04-22T06:01:59;74430.03;;;-146.65;83.53
57094;BME280;42970;50.996;3.706;2023-04-22T06:04:25;74385.69;;;-146.65;82.82
57094;BME280;42970;50.996;3.706;2023-04-22T06:06:50;74379.63;;;-146.65;82.29
57094;BME280;42970;50.996;3.706;2023-04-22T06:09:18;74393.75;;;-146.65;82.10
57094;BME280;42970;50.996;3.706;2023-04-22T06:11:43;74417.94;;;-146.65;82.46
57094;BME280;42970;50.996;3.706;2023-04-22T06:14:08;74391.72;;;-146.65;82.24
57094;BME280;42970;50.996;3.706;2023-04-22T06:16:34;74454.22;;;-146.65;83.98
57094;BME280;42970;50.996;3.706;2023-04-22T06:18:59;74415.91;;;-146.65;83.66
57094;BME280;42970;50.996;3.706;2023-04-22T06:21:25;74415.91;;;-146.65;83.70
57094;BME280;42970;50.996;3.706;2023-04-22T06:23:50;74399.78;;;-146.65;84.11
57094;BME280;42970;50.996;3.706;2023-04-22T06:26:16;74377.59;;;-146.65;83.18
57094;BME280;42970;50.996;3.706;2023-04-22T06:28:41;74393.75;;;-146.65;84.08
57094;BME280;42970;50.996;3.706;2023-04-22T06:31:06;74351.41;;;-146.65;83.39
57094;BME280;42970;50.996;3.706;2023-04-22T06:33:32;74363.50;;;-146.65;83.44
57094;BME280;42970;50.996;3.706;2023-04-22T06:35:57;74395.75;;;-146.65;83.97
57094;BME280;42970;50.996;3.706;2023-04-22T06:38:22;74363.50;;;-146.65;83.35
57094;BME280;42970;50.996;3.706;2023-04-22T06:40:48;74347.38;;;-146.65;84.26
57094;BME280;42970;50.996;3.706;2023-04-22T06:43:13;74323.16;;;-146.65;82.54
57094;BME280;42970;50.996;3.706;2023-04-22T06:45:38;74298.97;;;-146.65;82.05
57094;BME280;42970;50.996;3.706;2023-04-22T06:48:04;74290.91;;;-146.65;81.59
57094;BME280;42970;50.996;3.706;2023-04-22T06:50:29;74278.81;;;-146.65;80.72
57094;BME280;42970;50.996;3.706;2023-04-22T06:52:54;74242.50;;;-146.65;80.72
57094;BME280;42970;50.996;3.706;2023-04-22T06:55:20;74246.53;;;-146.65;80.39
57094;BME280;42970;50.996;3.706;2023-04-22T06:57:45;74230.41;;;-146.65;79.44
57094;BME280;42970;50.996;3.706;2023-04-22T07:00:11;74278.81;;;-146.65;80.11
57094;BME280;42970;50.996;3.706;2023-04-22T07:02:36;74327.19;;;-146.65;82.11
57094;BME280;42970;50.996;3.706;2023-04-22T07:05:02;74242.50;;;-146.65;81.01
57094;BME280;42970;50.996;3.706;2023-04-22T07:07:27;74236.47;;;-146.65;81.20
57094;BME280;42970;50.996;3.706;2023-04-22T07:09:52;74206.22;;;-146.65;80.33
57094;BME280;42970;50.996;3.706;2023-04-22T07:12:17;74254.59;;;-146.65;79.66
57094;BME280;42970;50.996;3.706;2023-04-22T07:14:43;74276.78;;;-146.65;81.39
57094;BME280;42970;50.996;3.706;2023-04-22T07:17:09;74240.50;;;-146.65;81.17
57094;BME280;42970;50.996;3.706;2023-04-22T07:19:34;74198.16;;;-146.65;80.10
57094;BME280;42970;50.996;3.706;2023-04-22T07:22:00;74165.88;;;-146.65;79.36
57094;BME280;42970;50.996;3.706;2023-04-22T07:24:27;74194.13;;;-146.65;80.36
57094;BME280;42970;50.996;3.706;2023-04-22T07:26:52;74190.09;;;-146.65;80.07
57094;BME280;42970;50.996;3.706;2023-04-22T07:29:18;74182.00;;;-146.65;80.61
57094;BME280;42970;50.996;3.706;2023-04-22T07:31:43;74137.66;;;-146.65;79.04
57094;BME280;42970;50.996;3.706;2023-04-22T07:34:08;74133.63;;;-146.65;78.41
57094;BME280;42970;50.996;3.706;2023-04-22T07:36:35;74071.13;;;-146.65;78.49
57094;BME280;42970;50.996;3.706;2023-04-22T07:39:00;74022.72;;;-146.65;77.90
57094;BME280;42970;50.996;3.706;2023-04-22T07:41:25;74000.53;;;-146.65;77.35
57094;BME280;42970;50.996;3.706;2023-04-22T07:43:51;74012.66;;;-146.65;77.22
57094;BME280;42970;50.996;3.706;2023-04-22T07:46:16;74079.19;;;-146.65;76.70
57094;BME280;42970;50.996;3.706;2023-04-22T07:48:42;73984.41;;;-146.65;76.69
57094;BME280;42970;50.996;3.706;2023-04-22T07:51:07;74040.88;;;-146.65;76.52
57094;BME280;42970;50.996;3.706;2023-04-22T07:53:32;74024.75;;;-146.65;75.20
57094;BME280;42970;50.996;3.706;2023-04-22T07:55:59;74022.72;;;-146.65;74.20
57094;BME280;42970;50.996;3.706;2023-04-22T07:58:24;73984.41;;;-146.65;74.32
57094;BME280;42970;50.996;3.706;2023-04-22T08:00:50;73992.47;;;-146.65;74.14
57094;BME280;42970;50.996;3.706;2023-04-22T08:03:15;73984.41;;;-146.65;74.22
57094;BME280;42970;50.996;3.706;2023-04-22T08:05:41;73968.28;;;-146.65;72.90
57094;BME280;42970;50.996;3.706;2023-04-22T08:08:06;73966.28;;;-146.65;73.56
57094;BME280;42970;50.996;3.706;2023-04-22T08:10:32;73911.84;;;-146.65;72.00
57094;BME280;42970;50.996;3.706;2023-04-22T08:12:57;73895.69;;;-146.65;71.18
57094;BME280;42970;50.996;3.706;2023-04-22T08:15:22;73968.28;;;-146.65;72.85
57094;BME280;42970;50.996;3.706;2023-04-22T08:17:48;73913.84;;;-146.65;70.48
57094;BME280;42970;50.996;3.706;2023-04-22T08:20:13;73911.84;;;-146.65;70.02
57094;BME280;42970;50.996;3.706;2023-04-22T08:22:39;73899.75;;;-146.65;69.54
57094;BME280;42970;50.996;3.706;2023-04-22T08:25:07;73903.78;;;-146.65;68.31
57094;BME280;42970;50.996;3.706;2023-04-22T08:27:34;73909.81;;;-146.65;69.04
57094;BME280;42970;50.996;3.706;2023-04-22T08:29:59;73859.41;;;-146.65;69.80
57094;BME280;42970;50.996;3.706;2023-04-22T08:32:24;73871.50;;;-146.65;69.49
57094;BME280;42970;50.996;3.706;2023-04-22T08:34:50;73934.00;;;-146.65;70.12
57094;BME280;42970;50.996;3.706;2023-04-22T08:37:15;73913.84;;;-146.65;70.64
57094;BME280;42970;50.996;3.706;2023-04-22T08:39:41;73921.91;;;-146.65;70.83
57094;BME280;42970;50.996;3.706;2023-04-22T08:42:06;73925.94;;;-146.65;70.70
57094;BME280;42970;50.996;3.706;2023-04-22T08:44:32;73936.03;;;-146.65;70.85
57094;BME280;42970;50.996;3.706;2023-04-22T08:46:59;73929.97;;;-146.65;72.48
57094;BME280;42970;50.996;3.706;2023-04-22T08:49:25;73936.03;;;-146.65;72.71
57094;BME280;42970;50.996;3.706;2023-04-22T08:51:51;73984.41;;;-146.65;72.88
57094;BME280;42970;50.996;3.706;2023-04-22T08:54:17;73992.47;;;-146.65;73.78
57094;BME280;42970;50.996;3.706;2023-04-22T08:56:43;74028.78;;;-146.65;75.19
57094;BME280;42970;50.996;3.706;2023-04-22T08:59:09;74016.69;;;-146.65;75.58
57094;BME280;42970;50.996;3.706;2023-04-22T09:01:35;74008.63;;;-146.65;75.90
57094;BME280;42970;50.996;3.706;2023-04-22T09:04:02;74038.84;;;-146.65;76.75
57094;BME280;42970;50.996;3.706;2023-04-22T09:06:27;74044.91;;;-146.65;77.78
57094;BME280;42970;50.996;3.706;2023-04-22T09:08:54;74042.88;;;-146.65;78.43
57094;BME280;42970;50.996;3.706;2023-04-22T09:11:20;74052.97;;;-146.65;78.36
57094;BME280;42970;50.996;3.706;2023-04-22T09:13:46;74044.91;;;-146.65;78.28
57094;BME280;42970;50.996;3.706;2023-04-22T09:16:11;74042.88;;;-146.65;78.56
57094;BME280;42970;50.996;3.706;2023-04-22T09:18:43;74097.34;;;-146.65;79.27
57094;BME280;42970;50.996;3.706;2023-04-22T09:21:10;74077.16;;;-146.65;79.98
57094;BME280;42970;50.996;3.706;2023-04-22T09:23:45;74095.31;;;-146.65;80.59
57094;BME280;42970;50.996;3.706;2023-04-22T09:26:11;74111.44;;;-146.65;80.89
57094;BME280;42970;50.996;3.706;2023-04-22T09:28:36;74121.53;;;-146.65;80.79
57094;BME280;42970;50.996;3.706;2023-04-22T09:31:02;74107.41;;;-146.65;80.92
57094;BME280;42970;50.996;3.706;2023-04-22T09:33:27;74089.25;;;-146.65;81.06
57094;BME280;42970;50.996;3.706;2023-04-22T09:35:55;74089.25;;;-146.65;80.96
57094;BME280;42970;50.996;3.706;2023-04-22T09:38:20;74036.84;;;-146.65;80.28
57094;BME280;42970;50.996;3.706;2023-04-22T09:40:45;74018.69;;;-146.65;79.51
57094;BME280;42970;50.996;3.706;2023-04-22T09:43:11;74030.78;;;-146.65;79.46
57094;BME280;42970;50.996;3.706;2023-04-22T09:45:40;74020.72;;;-146.65;79.65
57094;BME280;42970;50.996;3.706;2023-04-22T09:50:31;74004.59;;;-146.65;79.91
57094;BME280;42970;50.996;3.706;2023-04-22T09:52:58;73988.44;;;-146.65;79.37
57094;BME280;42970;50.996;3.706;2023-04-22T09:55:25;74002.56;;;-146.65;79.41
57094;BME280;42970;50.996;3.706;2023-04-22T09:57:54;73976.34;;;-146.65;80.16
57094;BME280;42970;50.996;3.706;2023-04-22T10:00:20;73944.09;;;-146.65;79.17
57094;BME280;42970;50.996;3.706;2023-04-22T10:02:46;73921.91;;;-146.65;78.64
57094;BME280;42970;50.996;3.706;2023-04-22T10:05:11;73940.06;;;-146.65;78.58
57094;BME280;42970;50.996;3.706;2023-04-22T10:07:37;73962.25;;;-146.65;77.52
57094;BME280;42970;50.996;3.706;2023-04-22T10:10:05;73932.00;;;-146.65;76.98
57094;BME280;42970;50.996;3.706;2023-04-22T10:12:31;73946.09;;;-146.65;75.68
57094;BME280;42970;50.996;3.706;2023-04-22T10:14:56;73942.06;;;-146.65;75.64
57094;BME280;42970;50.996;3.706;2023-04-22T10:17:21;74024.75;;;-146.65;74.13
57094;BME280;42970;50.996;3.706;2023-04-22T10:19:46;74040.88;;;-146.65;76.76
57094;BME280;42970;50.996;3.706;2023-04-22T10:22:12;74034.81;;;-146.65;77.34
57094;BME280;42970;50.996;3.706;2023-04-22T10:24:38;74073.13;;;-146.65;78.43
57094;BME280;42970;50.996;3.706;2023-04-22T10:27:04;74101.38;;;-146.65;77.97
57094;BME280;42970;50.996;3.706;2023-04-22T10:29:36;74091.28;;;-146.65;78.34
57094;BME280;42970;50.996;3.706;2023-04-22T10:32:44;74067.09;;;-146.65;78.85
57094;BME280;42970;50.996;3.706;2023-04-22T10:35:05;74061.03;;;-146.65;80.03
57094;BME280;42970;50.996;3.706;2023-04-22T10:37:30;74069.09;;;-146.65;80.00
57094;BME280;42970;50.996;3.706;2023-04-22T10:42:31;74061.03;;;-146.65;79.63
57094;BME280;42970;50.996;3.706;2023-04-22T10:45:00;74093.31;;;-146.65;79.84
57094;BME280;42970;50.996;3.706;2023-04-22T10:47:27;74127.56;;;-146.65;81.52
57094;BME280;42970;50.996;3.706;2023-04-22T10:52:37;74105.41;;;-146.65;81.99
57094;BME280;42970;50.996;3.706;2023-04-22T10:55:02;74089.25;;;-146.65;81.29
57094;BME280;42970;50.996;3.706;2023-04-22T10:57:29;74077.16;;;-146.65;80.05
57094;BME280;42970;50.996;3.706;2023-04-22T10:59:59;74081.19;;;-146.65;80.08
57094;BME280;42970;50.996;3.706;2023-04-22T11:02:25;74028.78;;;-146.65;79.37
57094;BME280;42970;50.996;3.706;2023-04-22T11:04:50;73986.44;;;-146.65;78.81
57094;BME280;42970;50.996;3.706;2023-04-22T11:09:51;73966.28;;;-146.65;76.93
57094;BME280;42970;50.996;3.706;2023-04-22T11:14:57;73960.22;;;-146.65;78.08
57094;BME280;42970;50.996;3.706;2023-04-22T11:17:23;73982.41;;;-146.65;77.82
57094;BME280;42970;50.996;3.706;2023-04-22T11:19:48;73990.47;;;-146.65;77.95
57094;BME280;42970;50.996;3.706;2023-04-22T11:22:20;74020.72;;;-146.65;79.53
57094;BME280;42970;50.996;3.706;2023-04-22T11:24:56;74063.06;;;-146.65;78.97
57094;BME280;42970;50.996;3.706;2023-04-22T11:27:21;74028.78;;;-146.65;78.40
57094;BME280;42970;50.996;3.706;2023-04-22T11:30:03;74022.72;;;-146.65;78.02
57094;BME280;42970;50.996;3.706;2023-04-22T11:32:30;73960.22;;;-146.65;77.14
57094;BME280;42970;50.996;3.706;2023-04-22T11:34:55;73948.13;;;-146.65;76.69
57094;BME280;42970;50.996;3.706;2023-04-22T11:37:21;73895.69;;;-146.65;76.55
57094;BME280;42970;50.996;3.706;2023-04-22T11:39:47;73885.63;;;-146.65;75.95
57094;BME280;42970;50.996;3.706;2023-04-22T11:42:15;73932.00;;;-146.65;74.81
57094;BME280;42970;50.996;3.706;2023-04-22T11:44:40;73919.91;;;-146.65;73.70
57094;BME280;42970;50.996;3.706;2023-04-22T11:47:08;73891.66;;;-146.65;73.31
57094;BME280;42970;50.996;3.706;2023-04-22T11:49:34;73863.44;;;-146.65;73.25
57094;BME280;42970;50.996;3.706;2023-04-22T11:51:59;73861.44;;;-146.65;71.75
57094;BME280;42970;50.996;3.706;2023-04-22T11:54:35;73851.34;;;-146.65;72.93
57094;BME280;42970;50.996;3.706;2023-04-22T11:57:02;73871.50;;;-146.65;72.36
57094;BME280;42970;50.996;3.706;2023-04-22T11:59:27;73855.38;;;-146.65;71.66
57094;BME280;42970;50.996;3.706;2023-04-22T12:01:52;73863.44;;;-146.65;72.13
57094;BME280;42970;50.996;3.706;2023-04-22T12:04:21;73873.53;;;-146.65;71.85
57094;BME280;42970;50.996;3.706;2023-04-22T12:06:46;73871.50;;;-146.65;70.76
57094;BME280;42970;50.996;3.706;2023-04-22T12:09:11;73915.88;;;-146.65;70.72
57094;BME280;42970;50.996;3.706;2023-04-22T12:11:37;73923.94;;;-146.65;70.85
57094;BME280;42970;50.996;3.706;2023-04-22T12:14:05;73946.09;;;-146.65;70.37
57094;BME280;42970;50.996;3.706;2023-04-22T12:16:40;73907.81;;;-146.65;69.94
57094;BME280;42970;50.996;3.706;2023-04-22T12:19:06;73895.69;;;-146.65;68.97
57094;BME280;42970;50.996;3.706;2023-04-22T12:21:31;73952.16;;;-146.65;69.27
57094;BME280;42970;50.996;3.706;2023-04-22T12:23:58;73897.72;;;-146.65;69.71
57094;BME280;42970;50.996;3.706;2023-04-22T12:26:24;73927.97;;;-146.65;69.90
57094;BME280;42970;50.996;3.706;2023-04-22T12:28:51;73913.84;;;-146.65;69.68
57094;BME280;42970;50.996;3.706;2023-04-22T12:31:16;73883.59;;;-146.65;69.65
57094;BME280;42970;50.996;3.706;2023-04-22T12:33:42;73869.50;;;-146.65;68.80
57094;BME280;42970;50.996;3.706;2023-04-22T12:36:08;73867.47;;;-146.65;68.44
57094;BME280;42970;50.996;3.706;2023-04-22T12:38:34;73855.38;;;-146.65;69.61
57094;BME280;42970;50.996;3.706;2023-04-22T12:41:00;73839.25;;;-146.65;69.21
57094;BME280;42970;50.996;3.706;2023-04-22T12:43:25;73851.34;;;-146.65;67.12
57094;BME280;42970;50.996;3.706;2023-04-22T12:45:50;73839.25;;;-146.65;67.51